Time;durP1;ratioP1;P1;durP2;ratioP2;P2;SDS_P1;SDS_P2;PMS_P1;PMS_P2;Temp;Humidity;BMP_temperature;BMP_pressure;BME280_temperature;BME280_humidity;BME280_pressure;Samples;Min_cycle;Max_cycle;Signal;HPM_P1;HPM_P2
2022/03/16 00:00:01;;;;;;;;;;;;;;;12.27;59.89;100215.81;4421507;32;19997;-88
2022/03/16 00:02:27;;;;;;;;;;;;;;;12.17;59.88;100203.97;4422705;32;19982;-88
2022/03/16 00:04:52;;;;;;;;;;;;;;;12.07;59.87;100176.47;4421202;32;22131;-88
2022/03/16 00:07:18;;;;;;;;;;;;;;;11.92;59.87;100183.84;4421535;32;20032;-89
2022/03/16 00:09:43;;;;;;;;;;;;;;;11.93;59.87;100193.37;4421175;32;19999;-88
2022/03/16 00:12:09;;;;;;;;;;;;;;;11.97;59.88;100197.59;4420361;32;20063;-88
2022/03/16 00:14:35;;;;;;;;;;;;;;;11.76;59.86;100208.62;4408388;32;20025;-89
2022/03/16 00:17:00;;;;;;;;;;;;;;;11.72;59.86;100203.56;4421087;32;20020;-89
2022/03/16 00:19:25;;;;;;;;;;;;;;;11.85;59.87;100204.97;4420436;32;20350;-89
2022/03/16 00:21:51;;;;;;;;;;;;;;;11.90;59.88;100198.69;4408259;32;19998;-89
2022/03/16 00:24:16;;;;;;;;;;;;;;;11.85;59.87;100195.38;4408110;32;20024;-89
2022/03/16 00:26:41;;;;;;;;;;;;;;;11.85;59.87;100190.16;4407731;32;31228;-90
2022/03/16 00:29:06;;;;;;;;;;;;;;;11.96;59.88;100185.44;4394828;32;19998;-89
2022/03/16 00:31:33;;;;;;;;;;;;;;;11.66;59.86;100187.19;4423482;32;20010;-89
2022/03/16 00:33:58;;;;;;;;;;;;;;;11.73;59.86;100179.19;4433724;32;20021;-90
2022/03/16 00:36:23;;;;;;;;;;;;;;;11.86;59.87;100178.81;4433656;32;20331;-90
2022/03/16 00:38:48;;;;;;;;;;;;;;;11.84;59.86;100174.56;4419654;32;19996;-90
2022/03/16 00:41:14;;;;;;;;;;;;;;;11.78;59.86;100172.97;4420667;32;27762;-90
2022/03/16 00:43:39;;;;;;;;;;;;;;;11.55;59.85;100185.78;4408348;32;20013;-91
2022/03/16 00:46:04;;;;;;;;;;;;;;;11.78;59.86;100180.78;4418458;32;19997;-91
2022/03/16 00:48:29;;;;;;;;;;;;;;;11.72;59.86;100177.47;4429364;32;19997;-88
2022/03/16 00:50:55;;;;;;;;;;;;;;;11.74;59.86;100171.31;4408005;32;20016;-88
2022/03/16 00:53:20;;;;;;;;;;;;;;;11.44;59.85;100167.88;4420344;32;19993;-89
2022/03/16 00:55:45;;;;;;;;;;;;;;;11.44;59.85;100161.81;4423115;32;19993;-88
2022/03/16 00:58:10;;;;;;;;;;;;;;;11.44;59.83;100159.19;4420535;32;19998;-87
2022/03/16 01:00:36;;;;;;;;;;;;;;;11.46;59.85;100155.63;4421895;32;20020;-87
2022/03/16 01:03:01;;;;;;;;;;;;;;;11.29;59.84;100148.28;4421754;32;20000;-89
2022/03/16 01:05:26;;;;;;;;;;;;;;;11.45;59.85;100147.88;4433798;32;20035;-89
2022/03/16 01:07:51;;;;;;;;;;;;;;;11.41;59.84;100146.25;4433273;32;20251;-89
2022/03/16 01:10:17;;;;;;;;;;;;;;;11.49;59.84;100149.47;4420251;32;25552;-88
2022/03/16 01:12:42;;;;;;;;;;;;;;;11.37;59.84;100145.50;4433599;32;19997;-90
2022/03/16 01:15:07;;;;;;;;;;;;;;;11.28;59.83;100143.97;4433688;32;19990;-89
2022/03/16 01:17:32;;;;;;;;;;;;;;;11.29;59.83;100148.28;4422093;32;20001;-89
2022/03/16 01:19:58;;;;;;;;;;;;;;;11.35;59.83;100153.31;4433647;32;19982;-87
2022/03/16 01:22:23;;;;;;;;;;;;;;;11.32;59.84;100150.81;4433025;32;26951;-86
2022/03/16 01:24:48;;;;;;;;;;;;;;;11.37;59.84;100162.00;4423675;32;20028;-87
2022/03/16 01:27:13;;;;;;;;;;;;;;;11.29;59.84;100176.09;4435504;32;19993;-86
2022/03/16 01:29:39;;;;;;;;;;;;;;;11.32;59.84;100171.66;4424358;32;20006;-86
2022/03/16 01:32:04;;;;;;;;;;;;;;;11.22;59.84;100185.87;4435993;32;30346;-86
2022/03/16 01:34:29;;;;;;;;;;;;;;;11.07;59.83;100176.69;4423723;32;20345;-87
2022/03/16 01:36:55;;;;;;;;;;;;;;;10.90;59.82;100186.75;4425201;32;20308;-88
2022/03/16 01:39:20;;;;;;;;;;;;;;;10.88;59.81;100193.72;4424396;32;25333;-88
2022/03/16 01:41:45;;;;;;;;;;;;;;;10.96;59.81;100198.75;4425167;32;19992;-88
2022/03/16 01:44:10;;;;;;;;;;;;;;;10.90;59.81;100201.50;4436786;32;19981;-88
2022/03/16 01:46:36;;;;;;;;;;;;;;;11.01;59.82;100195.09;4435996;32;31571;-88
2022/03/16 01:49:01;;;;;;;;;;;;;;;10.76;59.81;100192.28;4436571;32;19981;-88
2022/03/16 01:51:26;;;;;;;;;;;;;;;10.74;59.80;100186.28;4436596;32;20000;-89
2022/03/16 01:53:51;;;;;;;;;;;;;;;10.84;59.81;100192.09;4436601;32;20354;-88
2022/03/16 01:56:17;;;;;;;;;;;;;;;10.87;59.81;100186.78;4436626;32;19990;-89
2022/03/16 01:58:42;;;;;;;;;;;;;;;10.86;59.81;100177.28;4436523;32;19980;-89
2022/03/16 02:01:08;;;;;;;;;;;;;;;10.88;59.81;100177.22;4436668;32;19990;-88
2022/03/16 02:03:33;;;;;;;;;;;;;;;10.87;59.81;100170.31;4436490;32;20000;-89
2022/03/16 02:05:59;;;;;;;;;;;;;;;10.89;59.81;100176.37;4436543;32;20012;-88
2022/03/16 02:08:24;;;;;;;;;;;;;;;10.96;59.81;100181.34;4424991;32;19993;-88
2022/03/16 02:10:50;;;;;;;;;;;;;;;11.09;59.82;100184.47;4436527;32;20013;-88
2022/03/16 02:13:15;;;;;;;;;;;;;;;11.05;59.81;100175.03;4436469;32;19981;-89
2022/03/16 02:15:40;;;;;;;;;;;;;;;10.95;59.81;100174.44;4436063;32;20621;-88
2022/03/16 02:18:05;;;;;;;;;;;;;;;11.00;59.82;100158.69;4436009;32;20607;-88
2022/03/16 02:20:31;;;;;;;;;;;;;;;10.98;59.81;100160.47;4436471;32;20243;-89
2022/03/16 02:22:56;;;;;;;;;;;;;;;10.90;59.82;100158.09;4424250;32;26742;-89
2022/03/16 02:25:22;;;;;;;;;;;;;;;10.99;59.82;100160.44;4436608;32;19978;-89
2022/03/16 02:27:47;;;;;;;;;;;;;;;10.91;59.80;100149.37;4436241;32;20009;-89
2022/03/16 02:30:12;;;;;;;;;;;;;;;11.05;59.82;100144.63;4436599;32;19989;-89
2022/03/16 02:32:38;;;;;;;;;;;;;;;11.01;59.82;100143.00;4436692;32;20345;-89
2022/03/16 02:35:03;;;;;;;;;;;;;;;11.04;59.81;100135.09;4422817;32;19986;-89
2022/03/16 02:37:28;;;;;;;;;;;;;;;11.11;59.82;100125.34;4436648;32;20298;-89
2022/03/16 02:39:54;;;;;;;;;;;;;;;11.07;59.82;100114.19;4436476;32;19993;-90
2022/03/16 02:42:20;;;;;;;;;;;;;;;11.21;59.82;100113.78;4436657;32;19994;-89
2022/03/16 02:44:45;;;;;;;;;;;;;;;11.13;59.82;100110.56;4423344;32;21062;-88
2022/03/16 02:47:10;;;;;;;;;;;;;;;11.16;59.83;100099.19;4436499;32;20022;-88
2022/03/16 02:49:36;;;;;;;;;;;;;;;11.18;59.83;100097.41;4436238;32;19994;-88
2022/03/16 02:52:08;;;;;;;;;;;;;;;11.06;59.82;100090.78;4436358;32;19989;-88
2022/03/16 02:54:33;;;;;;;;;;;;;;;10.94;59.81;100098.94;4436202;32;20441;-89
2022/03/16 02:56:58;;;;;;;;;;;;;;;10.95;59.81;100096.31;4436320;32;20053;-89
2022/03/16 02:59:24;;;;;;;;;;;;;;;10.90;59.82;100092.97;4436230;32;19997;-89
2022/03/16 03:01:49;;;;;;;;;;;;;;;10.89;59.81;100101.69;4436144;32;20035;-89
2022/03/16 03:04:14;;;;;;;;;;;;;;;10.79;59.80;100086.34;4436118;32;20307;-89
2022/03/16 03:06:39;;;;;;;;;;;;;;;10.88;59.80;100080.87;4436291;32;20019;-88
2022/03/16 03:09:05;;;;;;;;;;;;;;;10.90;59.82;100087.78;4435451;32;28024;-89
2022/03/16 03:11:30;;;;;;;;;;;;;;;10.74;59.80;100082.13;4435742;32;20973;-87
2022/03/16 03:13:55;;;;;;;;;;;;;;;10.80;59.80;100085.44;4422699;32;31617;-87
2022/03/16 03:16:20;;;;;;;;;;;;;;;10.89;59.80;100080.00;4424656;32;20258;-87
2022/03/16 03:18:46;;;;;;;;;;;;;;;10.76;59.79;100072.50;4436024;32;19986;-87
2022/03/16 03:21:12;;;;;;;;;;;;;;;10.73;59.80;100067.41;4436193;32;20005;-87
2022/03/16 03:23:37;;;;;;;;;;;;;;;10.66;59.79;100067.63;4436079;32;20015;-87
2022/03/16 03:26:02;;;;;;;;;;;;;;;10.54;59.79;100053.16;4435417;32;27544;-88
2022/03/16 03:28:27;;;;;;;;;;;;;;;10.68;59.79;100048.44;4435392;32;25928;-87
2022/03/16 03:30:52;;;;;;;;;;;;;;;10.97;59.80;100037.22;4436115;32;20001;-87
2022/03/16 03:33:18;;;;;;;;;;;;;;;10.99;59.82;100029.34;4436107;32;20315;-88
2022/03/16 03:35:44;;;;;;;;;;;;;;;11.00;59.82;100015.41;4436097;32;19995;-89
2022/03/16 03:38:09;;;;;;;;;;;;;;;10.73;59.79;100010.13;4435817;32;20031;-89
2022/03/16 03:40:34;;;;;;;;;;;;;;;10.66;59.79;100019.00;4435923;32;20006;-88
2022/03/16 03:43:00;;;;;;;;;;;;;;;10.51;59.79;100000.34;4422491;32;28474;-88
2022/03/16 03:45:25;;;;;;;;;;;;;;;10.68;59.79;99982.50;4435688;32;19990;-88
2022/03/16 03:47:50;;;;;;;;;;;;;;;10.79;59.80;99979.59;4435741;32;19978;-88
2022/03/16 03:50:16;;;;;;;;;;;;;;;10.76;59.80;99983.13;4424093;32;19989;-88
2022/03/16 03:52:41;;;;;;;;;;;;;;;10.84;59.81;99985.50;4435501;32;19977;-88
2022/03/16 03:55:06;;;;;;;;;;;;;;;10.85;59.80;99982.84;4435702;32;20254;-88
2022/03/16 03:57:32;;;;;;;;;;;;;;;10.93;59.81;99974.84;4435737;32;19987;-88
2022/03/16 03:59:57;;;;;;;;;;;;;;;10.72;59.79;99973.72;4424128;32;19986;-89
2022/03/16 04:02:22;;;;;;;;;;;;;;;10.90;59.82;99970.56;4423432;32;32008;-88
2022/03/16 04:04:47;;;;;;;;;;;;;;;10.91;59.80;99966.22;4435798;32;20026;-89
2022/03/16 04:07:13;;;;;;;;;;;;;;;10.78;59.80;99965.72;4424094;32;19978;-89
2022/03/16 04:09:38;;;;;;;;;;;;;;;10.66;59.79;99961.72;4435707;32;20001;-91
2022/03/16 04:12:04;;;;;;;;;;;;;;;10.82;59.79;99959.50;4435133;32;25566;-90
2022/03/16 04:14:29;;;;;;;;;;;;;;;10.81;59.80;99949.16;4435477;32;20009;-86
2022/03/16 04:16:54;;;;;;;;;;;;;;;10.65;59.79;99954.81;4435583;32;19982;-86
2022/03/16 04:19:19;;;;;;;;;;;;;;;10.53;59.79;99952.56;4423762;32;19986;-85
2022/03/16 04:21:44;;;;;;;;;;;;;;;10.75;59.79;99948.44;4422626;32;19978;-85
2022/03/16 04:24:10;;;;;;;;;;;;;;;10.82;59.79;99950.84;4435090;32;19997;-85
2022/03/16 04:26:35;;;;;;;;;;;;;;;10.65;59.79;99952.22;4422509;32;20010;-87
2022/03/16 04:29:00;;;;;;;;;;;;;;;10.48;59.78;99954.44;4423561;32;20012;-86
2022/03/16 04:31:25;;;;;;;;;;;;;;;10.47;59.78;99957.94;4435252;32;20310;-86
2022/03/16 04:33:52;;;;;;;;;;;;;;;10.41;59.78;99965.94;4434659;32;29107;-86
2022/03/16 04:36:17;;;;;;;;;;;;;;;10.36;59.77;99958.22;4422408;32;19990;-86
2022/03/16 04:38:42;;;;;;;;;;;;;;;10.57;59.79;99953.31;4434856;32;19978;-86
2022/03/16 04:41:07;;;;;;;;;;;;;;;10.64;59.79;99950.47;4434536;32;24649;-85
2022/03/16 04:43:33;;;;;;;;;;;;;;;10.49;59.78;99948.34;4435119;32;19992;-85
2022/03/16 04:45:58;;;;;;;;;;;;;;;10.51;59.78;99953.50;4434685;32;19986;-84
2022/03/16 04:48:23;;;;;;;;;;;;;;;10.61;59.79;99954.94;4423549;32;19982;-86
2022/03/16 04:50:49;;;;;;;;;;;;;;;10.60;59.78;99946.25;4434651;32;20010;-89
2022/03/16 04:53:14;;;;;;;;;;;;;;;10.72;59.79;99964.16;4434712;32;19973;-89
2022/03/16 04:55:39;;;;;;;;;;;;;;;10.74;59.79;99958.91;4434638;32;20008;-87
2022/03/16 04:58:05;;;;;;;;;;;;;;;10.58;59.79;99971.50;4423513;32;20038;-86
2022/03/16 05:00:30;;;;;;;;;;;;;;;10.55;59.79;99981.16;4436644;32;19981;-87
2022/03/16 05:02:55;;;;;;;;;;;;;;;10.62;59.79;99980.06;4423701;32;19981;-87
2022/03/16 05:05:20;;;;;;;;;;;;;;;10.47;59.78;99978.75;4436020;32;27167;-88
2022/03/16 05:07:45;;;;;;;;;;;;;;;10.50;59.78;99988.22;4436748;32;19998;-88
2022/03/16 05:10:11;;;;;;;;;;;;;;;10.56;59.78;99994.13;4436877;32;19970;-87
2022/03/16 05:12:37;;;;;;;;;;;;;;;10.55;59.79;99992.41;4437231;32;19974;-87
2022/03/16 05:15:03;;;;;;;;;;;;;;;10.49;59.78;99992.59;4437157;32;20080;-87
2022/03/16 05:17:28;;;;;;;;;;;;;;;10.61;59.79;99997.44;4436767;32;19989;-88
2022/03/16 05:19:53;;;;;;;;;;;;;;;10.60;59.78;99989.66;4436845;32;20247;-88
2022/03/16 05:22:19;;;;;;;;;;;;;;;10.51;59.78;100001.19;4436550;32;20866;-87
2022/03/16 05:24:44;;;;;;;;;;;;;;;10.75;59.79;99999.66;4437157;32;19977;-90
2022/03/16 05:27:09;;;;;;;;;;;;;;;10.52;59.78;99999.44;4435846;32;28340;-87
2022/03/16 05:29:34;;;;;;;;;;;;;;;10.53;59.79;99996.81;4436915;32;19982;-88
2022/03/16 05:32:00;;;;;;;;;;;;;;;10.72;59.79;99998.00;4425015;32;20020;-88
2022/03/16 05:34:25;;;;;;;;;;;;;;;10.76;59.79;100001.38;4436605;32;20406;-88
2022/03/16 05:36:50;;;;;;;;;;;;;;;10.81;59.80;99989.06;4423969;32;20252;-88
2022/03/16 05:39:15;;;;;;;;;;;;;;;10.73;59.79;99983.22;4424787;32;20069;-87
2022/03/16 05:41:40;;;;;;;;;;;;;;;10.71;59.79;99983.28;4424599;32;29481;-87
2022/03/16 05:44:07;;;;;;;;;;;;;;;10.85;59.79;99979.41;4425092;32;20039;-87
2022/03/16 05:46:32;;;;;;;;;;;;;;;10.74;59.79;99987.53;4436710;32;20047;-87
2022/03/16 05:48:57;;;;;;;;;;;;;;;10.80;59.79;99991.72;4436148;32;30821;-87
2022/03/16 05:51:23;;;;;;;;;;;;;;;11.02;59.81;99998.84;4435979;32;34013;-87
2022/03/16 05:53:48;;;;;;;;;;;;;;;11.13;59.81;99993.34;4424922;32;20019;-87
2022/03/16 05:56:13;;;;;;;;;;;;;;;11.25;59.82;99989.47;4424499;32;19982;-87
2022/03/16 05:58:38;;;;;;;;;;;;;;;11.30;59.82;100004.06;4424904;32;20016;-88
2022/03/16 06:01:04;;;;;;;;;;;;;;;11.22;59.83;100015.62;4436737;32;20240;-88
2022/03/16 06:03:29;;;;;;;;;;;;;;;11.08;59.82;100024.69;4425212;32;20109;-87
2022/03/16 06:05:54;;;;;;;;;;;;;;;10.87;59.80;100038.34;4425172;32;19997;-87
2022/03/16 06:08:19;;;;;;;;;;;;;;;10.81;59.80;100025.50;4436708;32;19997;-86
2022/03/16 06:10:45;;;;;;;;;;;;;;;10.75;59.79;100023.94;4434932;32;31772;-86
2022/03/16 06:13:10;;;;;;;;;;;;;;;10.63;59.79;100026.03;4435880;32;21043;-86
2022/03/16 06:15:39;;;;;;;;;;;;;;;10.76;59.79;100028.25;4436416;32;19986;-87
2022/03/16 06:18:04;;;;;;;;;;;;;;;10.81;59.79;100028.13;4436275;32;20357;-87
2022/03/16 06:20:30;;;;;;;;;;;;;;;10.75;59.79;100026.53;4436272;32;19981;-87
2022/03/16 06:22:55;;;;;;;;;;;;;;;10.94;59.81;100026.87;4436308;32;19993;-87
2022/03/16 06:25:20;;;;;;;;;;;;;;;11.19;59.81;100026.16;4436250;32;19986;-87
2022/03/16 06:27:46;;;;;;;;;;;;;;;11.01;59.81;100027.53;4436160;32;20319;-87
2022/03/16 06:30:11;;;;;;;;;;;;;;;11.20;59.81;100026.09;4424086;32;28621;-86
2022/03/16 06:32:36;;;;;;;;;;;;;;;11.17;59.81;100023.59;4424685;32;19985;-87
2022/03/16 06:35:05;;;;;;;;;;;;;;;11.20;59.81;100018.28;4436330;32;20008;-86
2022/03/16 06:37:31;;;;;;;;;;;;;;;11.24;59.82;100019.91;4436219;32;20009;-87
2022/03/16 06:39:56;;;;;;;;;;;;;;;11.32;59.83;100015.28;4435903;32;20315;-87
2022/03/16 06:42:21;;;;;;;;;;;;;;;11.34;59.83;100017.84;4435562;32;25752;-87
2022/03/16 06:44:46;;;;;;;;;;;;;;;11.37;59.83;100018.62;4424163;32;19993;-87
2022/03/16 06:47:12;;;;;;;;;;;;;;;11.39;59.83;100023.81;4435334;32;20024;-87
2022/03/16 06:49:37;;;;;;;;;;;;;;;11.42;59.83;100023.69;4435804;32;19996;-86
2022/03/16 06:52:02;;;;;;;;;;;;;;;11.45;59.83;100027.97;4435781;32;20001;-87
2022/03/16 06:54:28;;;;;;;;;;;;;;;11.45;59.84;100033.19;4436006;32;20240;-87
2022/03/16 06:56:54;;;;;;;;;;;;;;;11.41;59.83;100027.22;4423062;32;19981;-87
2022/03/16 06:59:19;;;;;;;;;;;;;;;11.34;59.82;100036.09;4435804;32;22140;-87
2022/03/16 07:01:44;;;;;;;;;;;;;;;11.49;59.83;100034.78;4435956;32;19970;-87
2022/03/16 07:04:09;;;;;;;;;;;;;;;11.34;59.82;100033.50;4423989;32;30755;-87
2022/03/16 07:06:35;;;;;;;;;;;;;;;11.38;59.83;100041.19;4423844;32;28682;-87
2022/03/16 07:09:00;;;;;;;;;;;;;;;11.34;59.82;100041.31;4435840;32;19986;-87
2022/03/16 07:11:25;;;;;;;;;;;;;;;11.38;59.83;100046.41;4423265;32;20028;-87
2022/03/16 07:16:34;;;;;;;;;;;;;;;11.40;59.83;100038.53;4434497;32;20030;-87
2022/03/16 07:19:00;;;;;;;;;;;;;;;11.35;59.82;100032.59;4423210;32;19986;-87
2022/03/16 07:21:25;;;;;;;;;;;;;;;11.53;59.84;100026.81;4435739;32;20032;-87
2022/03/16 07:23:50;;;;;;;;;;;;;;;11.43;59.83;100038.44;4435810;32;20303;-87
2022/03/16 07:26:15;;;;;;;;;;;;;;;11.43;59.82;100040.19;4435586;32;27117;-86
2022/03/16 07:28:41;;;;;;;;;;;;;;;11.36;59.81;100037.78;4435718;32;20512;-87
2022/03/16 07:31:07;;;;;;;;;;;;;;;11.07;59.81;100037.78;4435860;32;19990;-86
2022/03/16 07:33:33;;;;;;;;;;;;;;;11.28;59.82;100026.72;4436104;32;20001;-87
2022/03/16 07:35:59;;;;;;;;;;;;;;;11.32;59.82;100038.75;4423216;32;19970;-87
2022/03/16 07:38:24;;;;;;;;;;;;;;;11.48;59.82;100041.75;4422903;32;20060;-87
2022/03/16 07:40:49;;;;;;;;;;;;;;;11.46;59.83;100033.13;4423784;32;29442;-86
2022/03/16 07:43:15;;;;;;;;;;;;;;;11.41;59.83;100037.63;4423328;32;19997;-87
2022/03/16 07:45:40;;;;;;;;;;;;;;;11.28;59.82;100039.75;4424575;32;19982;-87
2022/03/16 07:48:05;;;;;;;;;;;;;;;11.23;59.81;100041.66;4436132;32;20020;-87
2022/03/16 07:50:30;;;;;;;;;;;;;;;11.17;59.81;100054.00;4436104;32;20076;-87
2022/03/16 07:52:56;;;;;;;;;;;;;;;11.29;59.81;100051.88;4435948;32;19981;-87
2022/03/16 07:55:21;;;;;;;;;;;;;;;11.23;59.82;100056.44;4422985;32;20001;-86
2022/03/16 07:57:47;;;;;;;;;;;;;;;11.18;59.81;100056.56;4436095;32;19985;-86
2022/03/16 08:00:13;;;;;;;;;;;;;;;11.28;59.81;100051.91;4424366;32;19993;-86
2022/03/16 08:02:43;;;;;;;;;;;;;;;11.33;59.82;100052.62;4424401;32;20000;-87
2022/03/16 08:05:09;;;;;;;;;;;;;;;11.37;59.83;100052.53;4435788;32;19989;-87
2022/03/16 08:07:34;;;;;;;;;;;;;;;11.40;59.82;100056.78;4435768;32;20029;-87
2022/03/16 08:09:59;;;;;;;;;;;;;;;11.28;59.82;100062.34;4424381;32;20055;-87
2022/03/16 08:12:24;;;;;;;;;;;;;;;11.36;59.82;100061.25;4423101;32;20004;-87
2022/03/16 08:14:50;;;;;;;;;;;;;;;11.58;59.83;100057.94;4435761;32;19977;-87
2022/03/16 08:17:15;;;;;;;;;;;;;;;11.47;59.83;100063.50;4435766;32;19986;-87
2022/03/16 08:19:40;;;;;;;;;;;;;;;11.56;59.83;100072.78;4435624;32;19981;-87
2022/03/16 08:22:06;;;;;;;;;;;;;;;11.60;59.84;100064.84;4435674;32;19982;-87
2022/03/16 08:24:31;;;;;;;;;;;;;;;11.61;59.83;100070.91;4422898;32;20028;-84
2022/03/16 08:26:56;;;;;;;;;;;;;;;11.77;59.84;100069.50;4422152;32;29671;-87
2022/03/16 08:29:21;;;;;;;;;;;;;;;11.60;59.84;100075.28;4422253;32;25550;-87
2022/03/16 08:31:46;;;;;;;;;;;;;;;11.74;59.84;100081.78;4435388;32;20311;-87
2022/03/16 08:34:12;;;;;;;;;;;;;;;11.78;59.84;100084.28;4424336;32;31238;-87
2022/03/16 08:36:39;;;;;;;;;;;;;;;11.67;59.83;100083.75;4437508;32;20278;-87
2022/03/16 08:39:04;;;;;;;;;;;;;;;11.56;59.83;100091.03;4437269;32;20356;-87
2022/03/16 08:41:32;;;;;;;;;;;;;;;11.43;59.82;100087.97;4437602;32;19986;-87
2022/03/16 08:43:58;;;;;;;;;;;;;;;11.28;59.82;100094.47;4437218;32;20364;-87
2022/03/16 08:46:23;;;;;;;;;;;;;;;11.22;59.82;100092.06;4437498;32;20311;-86
2022/03/16 08:48:48;;;;;;;;;;;;;;;11.11;59.81;100091.50;4437441;32;19986;-87
2022/03/16 08:51:13;;;;;;;;;;;;;;;11.16;59.81;100100.06;4423494;32;35418;-87
2022/03/16 08:53:39;;;;;;;;;;;;;;;11.32;59.82;100092.63;4424819;32;26409;-87
2022/03/16 08:56:04;;;;;;;;;;;;;;;11.42;59.82;100096.69;4425488;32;19985;-87
2022/03/16 08:58:29;;;;;;;;;;;;;;;11.30;59.81;100104.84;4425172;32;20363;-87
2022/03/16 09:00:55;;;;;;;;;;;;;;;11.27;59.81;100116.22;4437202;32;20021;-87
2022/03/16 09:03:20;;;;;;;;;;;;;;;11.31;59.82;100114.38;4437162;32;20247;-84
2022/03/16 09:05:45;;;;;;;;;;;;;;;11.38;59.82;100111.56;4437079;32;20001;-87
2022/03/16 09:08:10;;;;;;;;;;;;;;;11.28;59.81;100124.87;4425445;32;20263;-87
2022/03/16 09:10:36;;;;;;;;;;;;;;;11.24;59.81;100113.72;4425487;32;19990;-87
2022/03/16 09:13:04;;;;;;;;;;;;;;;11.20;59.81;100124.28;4437010;32;19974;-87
2022/03/16 09:15:29;;;;;;;;;;;;;;;11.00;59.79;100119.63;4425489;32;20064;-87
2022/03/16 09:17:54;;;;;;;;;;;;;;;10.87;59.79;100124.28;4424063;32;19986;-87
2022/03/16 09:20:19;;;;;;;;;;;;;;;10.80;59.79;100132.31;4425115;32;19981;-87
2022/03/16 09:22:45;;;;;;;;;;;;;;;10.84;59.79;100134.78;4437072;32;19993;-87
2022/03/16 09:25:10;;;;;;;;;;;;;;;10.94;59.80;100131.06;4424628;32;30204;-86
2022/03/16 09:27:35;;;;;;;;;;;;;;;11.06;59.80;100146.34;4424780;32;25504;-87
2022/03/16 09:30:01;;;;;;;;;;;;;;;10.96;59.80;100162.28;4436999;32;20047;-86
2022/03/16 09:32:27;;;;;;;;;;;;;;;10.70;59.79;100157.75;4436786;32;20025;-86
2022/03/16 09:34:52;;;;;;;;;;;;;;;10.51;59.78;100162.56;4436823;32;19996;-87
2022/03/16 09:37:18;;;;;;;;;;;;;;;10.16;59.75;100152.97;4436810;32;20026;-87
2022/03/16 09:39:44;;;;;;;;;;;;;;;10.24;59.76;100166.72;4436786;32;19997;-87
2022/03/16 09:42:09;;;;;;;;;;;;;;;10.38;59.76;100171.56;4436827;32;20004;-87
2022/03/16 09:44:36;;;;;;;;;;;;;;;10.17;59.76;100178.09;4436687;32;19978;-87
2022/03/16 09:47:01;;;;;;;;;;;;;;;10.08;59.74;100173.13;4436770;32;20040;-87
2022/03/16 09:49:27;;;;;;;;;;;;;;;9.96;59.74;100183.81;4436756;32;20323;-87
2022/03/16 09:51:53;;;;;;;;;;;;;;;9.99;59.74;100171.59;4423836;32;19992;-87
2022/03/16 09:54:18;;;;;;;;;;;;;;;9.87;59.74;100197.84;4436563;32;19982;-86
2022/03/16 09:56:43;;;;;;;;;;;;;;;9.80;59.74;100196.28;4423778;32;20316;-87
2022/03/16 09:59:10;;;;;;;;;;;;;;;9.93;59.73;100192.53;4423206;32;20055;-86
2022/03/16 10:01:35;;;;;;;;;;;;;;;10.01;59.75;100198.44;4436777;32;19981;-87
2022/03/16 10:04:00;;;;;;;;;;;;;;;10.03;59.75;100201.00;4423721;32;19970;-87
2022/03/16 10:06:25;;;;;;;;;;;;;;;9.99;59.74;100197.59;4436691;32;20013;-86
2022/03/16 10:14:18;;;;;;;;;;;;;;;10.01;59.75;100201.03;4434929;32;20385;-86
2022/03/16 10:19:48;;;;;;;;;;;;;;;10.16;59.74;100207.59;4425053;32;20029;-86
2022/03/16 10:22:14;;;;;;;;;;;;;;;9.93;59.74;100204.66;4436324;32;19988;-86
2022/03/16 10:24:41;;;;;;;;;;;;;;;10.15;59.75;100213.69;4436631;32;19981;-87
2022/03/16 10:27:06;;;;;;;;;;;;;;;10.22;59.75;100209.25;4424889;32;20040;-87
2022/03/16 10:29:31;;;;;;;;;;;;;;;10.36;59.76;100207.19;4424666;32;20282;-86
2022/03/16 10:32:00;;;;;;;;;;;;;;;10.41;59.77;100211.41;4436623;32;19974;-86
2022/03/16 10:34:25;;;;;;;;;;;;;;;10.32;59.76;100218.56;4436581;32;19993;-86
2022/03/16 10:36:52;;;;;;;;;;;;;;;10.47;59.77;100218.19;4424808;32;19970;-87
2022/03/16 10:39:17;;;;;;;;;;;;;;;10.56;59.77;100209.31;4424911;32;20057;-86
2022/03/16 10:47:12;;;;;;;;;;;;;;;10.36;59.76;100208.03;4424785;32;20034;-86
2022/03/16 10:49:38;;;;;;;;;;;;;;;10.19;59.76;100211.91;4436482;32;20053;-87
2022/03/16 10:52:10;;;;;;;;;;;;;;;10.30;59.76;100209.94;4436161;32;20023;-86
2022/03/16 10:54:36;;;;;;;;;;;;;;;10.32;59.77;100213.34;4435710;32;19993;-87
2022/03/16 10:57:02;;;;;;;;;;;;;;;10.55;59.76;100212.81;4423993;32;19996;-86
2022/03/16 10:59:29;;;;;;;;;;;;;;;10.68;59.79;100217.69;4436272;32;20005;-87
2022/03/16 11:02:01;;;;;;;;;;;;;;;10.75;59.78;100213.16;4436297;32;19992;-87
2022/03/16 11:04:27;;;;;;;;;;;;;;;10.97;59.79;100216.06;4424708;32;20009;-88
2022/03/16 11:06:52;;;;;;;;;;;;;;;10.97;59.79;100224.75;4436107;32;19977;-86
2022/03/16 11:09:17;;;;;;;;;;;;;;;10.89;59.79;100231.06;4435580;32;32170;-86
2022/03/16 11:14:27;;;;;;;;;;;;;;;10.88;59.79;100226.72;4434565;32;20005;-87
2022/03/16 11:16:52;;;;;;;;;;;;;;;11.05;59.79;100233.19;4436024;32;20259;-87
2022/03/16 11:19:17;;;;;;;;;;;;;;;11.37;59.82;100229.75;4435535;32;27746;-87
2022/03/16 11:21:45;;;;;;;;;;;;;;;11.23;59.81;100231.00;4423303;32;19992;-86
2022/03/16 11:24:17;;;;;;;;;;;;;;;10.77;59.79;100235.66;4436067;32;19993;-87
2022/03/16 11:27:03;;;;;;;;;;;;;;;10.57;59.77;100240.50;4436046;32;20031;-87
2022/03/16 11:29:47;;;;;;;;;;;;;;;10.65;59.78;100238.59;4423230;32;19997;-87
2022/03/16 11:32:16;;;;;;;;;;;;;;;10.49;59.77;100246.78;4424797;32;19974;-87
2022/03/16 11:34:48;;;;;;;;;;;;;;;10.31;59.76;100248.91;4436436;32;19978;-86
2022/03/16 11:37:14;;;;;;;;;;;;;;;10.06;59.75;100243.38;4435934;32;19986;-86
2022/03/16 11:39:46;;;;;;;;;;;;;;;10.09;59.75;100253.72;4435928;32;20008;-87
2022/03/16 11:42:15;;;;;;;;;;;;;;;9.94;59.73;100253.22;4435986;32;20455;-86
2022/03/16 11:44:40;;;;;;;;;;;;;;;9.97;59.74;100248.78;4424485;32;19986;-86
2022/03/16 11:47:13;;;;;;;;;;;;;;;10.09;59.75;100243.31;4435954;32;20038;-86
2022/03/16 11:49:42;;;;;;;;;;;;;;;10.05;59.74;100256.44;4424501;32;20047;-86
2022/03/16 11:52:10;;;;;;;;;;;;;;;10.00;59.74;100247.88;4424191;32;19997;-86
2022/03/16 11:54:42;;;;;;;;;;;;;;;9.85;59.73;100256.84;4424220;32;20037;-86
2022/03/16 11:57:08;;;;;;;;;;;;;;;9.81;59.73;100269.06;4424330;32;19986;-86
2022/03/16 11:59:34;;;;;;;;;;;;;;;9.72;59.73;100260.59;4435817;32;20292;-86
2022/03/16 12:02:10;;;;;;;;;;;;;;;9.81;59.73;100265.59;4435760;32;20057;-86
2022/03/16 12:04:40;;;;;;;;;;;;;;;9.82;59.73;100262.97;4435788;32;20032;-87
2022/03/16 12:07:12;;;;;;;;;;;;;;;9.92;59.73;100261.03;4435693;32;19998;-87
2022/03/16 12:09:59;;;;;;;;;;;;;;;10.02;59.74;100257.34;4422863;32;20007;-86
2022/03/16 12:15:22;;;;;;;;;;;;;;;10.15;59.74;100265.72;4424049;32;19992;-86
2022/03/16 12:17:51;;;;;;;;;;;;;;;10.24;59.76;100273.38;4435616;32;20046;-86
2022/03/16 12:20:24;;;;;;;;;;;;;;;10.25;59.75;100279.44;4423874;32;19990;-87
2022/03/16 12:22:49;;;;;;;;;;;;;;;10.24;59.75;100282.94;4435487;32;19988;-86
2022/03/16 12:25:30;;;;;;;;;;;;;;;10.09;59.75;100287.53;4422630;32;19974;-86
2022/03/16 12:30:41;;;;;;;;;;;;;;;10.28;59.75;100288.03;4424022;32;20035;-87
2022/03/16 12:33:06;;;;;;;;;;;;;;;10.59;59.77;100279.50;4435377;32;20034;-86
2022/03/16 12:35:34;;;;;;;;;;;;;;;10.60;59.77;100268.19;4423788;32;19982;-87
2022/03/16 12:37:59;;;;;;;;;;;;;;;10.60;59.77;100271.66;4423744;32;19982;-86
2022/03/16 12:40:26;;;;;;;;;;;;;;;10.66;59.77;100274.13;4435103;32;20005;-86
2022/03/16 12:42:53;;;;;;;;;;;;;;;10.93;59.79;100275.22;4423781;32;19969;-87
2022/03/16 12:45:19;;;;;;;;;;;;;;;10.92;59.79;100275.25;4422358;32;20004;-88
2022/03/16 12:47:44;;;;;;;;;;;;;;;10.96;59.79;100287.31;4435140;32;19985;-88
2022/03/16 12:50:11;;;;;;;;;;;;;;;10.62;59.78;100295.06;4435173;32;20067;-87
2022/03/16 12:52:37;;;;;;;;;;;;;;;10.37;59.76;100294.75;4434760;32;19973;-87
2022/03/16 12:55:06;;;;;;;;;;;;;;;10.06;59.74;100313.59;4434870;32;20339;-87